Time;durP1;ratioP1;P1;durP2;ratioP2;P2;SDS_P1;SDS_P2;PMS_P1;PMS_P2;Temp;Humidity;BMP_temperature;BMP_pressure;BME280_temperature;BME280_humidity;BME280_pressure;Samples;Min_cycle;Max_cycle;Signal;HPM_P1;HPM_P2
2023/07/09 00:02:52;;;;;;;;;19.60;18.80;;;;;22.22;100.00;99145.06;6254275;27;96689;-63
2023/07/09 00:05:55;;;;;;;;;18.00;16.50;;;;;22.18;100.00;99147.56;6262993;27;96408;-63
2023/07/09 00:08:59;;;;;;;;;17.00;16.00;;;;;22.13;100.00;99149.53;6268974;27;96353;-63
2023/07/09 00:12:02;;;;;;;;;20.00;19.20;;;;;22.09;100.00;99143.00;6268442;27;99283;-63
2023/07/09 00:15:09;;;;;;;;;19.00;17.00;;;;;22.04;100.00;99157.56;6289121;27;96832;-62
2023/07/09 00:18:12;;;;;;;;;16.00;15.20;;;;;22.00;100.00;99154.59;6266423;27;96716;-63
2023/07/09 00:21:16;;;;;;;;;15.25;14.75;;;;;21.94;100.00;99153.00;6272358;27;96392;-63
2023/07/09 00:24:21;;;;;;;;;17.40;17.00;;;;;21.84;100.00;99163.25;6270587;27;96642;-63
2023/07/09 00:27:28;;;;;;;;;16.40;15.40;;;;;21.83;100.00;99159.69;6280305;27;96226;-62
2023/07/09 00:30:31;;;;;;;;;13.80;13.40;;;;;21.81;100.00;99158.31;6265125;27;96925;-63
2023/07/09 00:33:34;;;;;;;;;11.25;10.00;;;;;21.82;100.00;99165.47;6247312;27;96715;-63
2023/07/09 00:36:38;;;;;;;;;15.80;13.80;;;;;21.83;100.00;99151.44;6265335;27;97395;-62
2023/07/09 00:39:43;;;;;;;;;15.00;14.00;;;;;21.84;100.00;99161.34;6273014;27;96912;-63
2023/07/09 00:42:47;;;;;;;;;13.80;12.60;;;;;21.81;100.00;99155.56;6245144;27;96769;-62
2023/07/09 00:46:37;;;;;;;;;17.60;14.60;;;;;21.78;100.00;99154.25;6267312;27;96263;-62
2023/07/09 00:49:46;;;;;;;;;15.00;14.00;;;;;21.72;100.00;99158.13;6280399;27;96291;-62
2023/07/09 00:52:53;;;;;;;;;14.00;12.00;;;;;21.79;100.00;99160.56;6232515;27;96694;-63
2023/07/09 00:56:10;;;;;;;;;17.60;16.00;;;;;21.79;100.00;99166.88;6269117;27;98293;-62
2023/07/09 00:59:21;;;;;;;;;15.60;15.60;;;;;21.81;100.00;99158.31;6262570;27;96352;-63
2023/07/09 01:02:24;;;;;;;;;15.00;14.00;;;;;21.78;100.00;99158.91;6261833;27;96506;-62
2023/07/09 01:05:28;;;;;;;;;16.00;12.00;;;;;21.76;100.00;99147.38;6262633;27;96462;-63
2023/07/09 01:08:33;;;;;;;;;13.40;13.00;;;;;21.65;100.00;99137.63;6245911;27;97207;-63
2023/07/09 01:11:38;;;;;;;;;12.60;12.00;;;;;21.72;100.00;99151.81;6262759;27;97071;-63
2023/07/09 01:14:42;;;;;;;;;15.00;15.00;;;;;21.72;100.00;99152.66;6239677;27;96731;-62
2023/07/09 01:17:45;;;;;;;;;13.00;13.00;;;;;21.72;100.00;99152.66;6249261;27;96266;-62
2023/07/09 01:20:48;;;;;;;;;13.00;12.00;;;;;21.61;100.00;99142.84;6242333;27;96280;-63
2023/07/09 01:23:54;;;;;;;;;16.00;14.00;;;;;21.54;100.00;99151.44;6225411;27;96678;-62
2023/07/09 01:27:01;;;;;;;;;15.00;13.60;;;;;21.42;100.00;99148.22;6260967;27;96597;-62
2023/07/09 01:30:08;;;;;;;;;15.60;14.00;;;;;21.31;100.00;99149.41;6250007;27;96243;-62
2023/07/09 01:33:11;;;;;;;;;14.40;13.00;;;;;21.26;100.00;99143.94;6226875;27;98610;-63
2023/07/09 01:36:17;;;;;;;;;15.00;14.20;;;;;21.23;100.00;99152.75;6275875;27;96400;-63
2023/07/09 01:39:21;;;;;;;;;16.75;16.00;;;;;21.22;100.00;99153.84;6268496;27;96700;-63
2023/07/09 01:42:28;;;;;;;;;11.60;11.60;;;;;21.21;100.00;99143.19;6252086;27;97055;-62
2023/07/09 01:45:32;;;;;;;;;15.40;15.40;;;;;21.18;100.00;99139.91;6280818;27;96687;-63
2023/07/09 01:48:40;;;;;;;;;13.00;13.00;;;;;21.16;100.00;99144.00;6243968;27;97777;-63
2023/07/09 01:51:47;;;;;;;;;13.50;12.50;;;;;21.11;100.00;99144.84;6252418;27;96908;-62
2023/07/09 01:54:51;;;;;;;;;11.60;11.20;;;;;20.99;100.00;99149.03;6268030;27;99050;-62
2023/07/09 01:57:56;;;;;;;;;14.25;13.50;;;;;21.05;100.00;99146.00;6283188;27;97563;-62
2023/07/09 02:01:00;;;;;;;;;16.00;15.00;;;;;21.12;100.00;99149.22;6255238;27;96681;-62
2023/07/09 02:04:04;;;;;;;;;11.40;11.00;;;;;21.14;100.00;99154.47;6244118;27;96337;-63
2023/07/09 02:07:07;;;;;;;;;14.80;13.80;;;;;21.11;100.00;99152.28;6243561;27;96595;-62
2023/07/09 02:10:14;;;;;;;;;15.00;14.60;;;;;21.16;100.00;99153.06;6243554;27;97107;-62
2023/07/09 02:13:17;;;;;;;;;15.00;15.00;;;;;21.17;100.00;99148.41;6283853;27;96421;-62
2023/07/09 02:16:20;;;;;;;;;13.00;12.00;;;;;21.17;100.00;99156.63;6249196;27;98335;-63
2023/07/09 02:19:23;;;;;;;;;13.60;13.00;;;;;21.22;100.00;99158.50;6243848;27;96355;-63
2023/07/09 02:22:27;;;;;;;;;14.40;13.00;;;;;20.95;100.00;99159.75;6252589;27;96318;-62
2023/07/09 02:25:31;;;;;;;;;13.00;13.00;;;;;20.90;100.00;99158.97;6260961;27;96416;-62
2023/07/09 02:28:35;;;;;;;;;14.00;12.60;;;;;20.97;100.00;99164.94;6277035;27;96464;-62
2023/07/09 02:31:40;;;;;;;;;16.00;13.00;;;;;20.99;100.00;99168.22;6251913;27;96756;-62
2023/07/09 02:34:43;;;;;;;;;13.60;12.60;;;;;21.09;100.00;99176.41;6257596;27;96270;-63
2023/07/09 02:37:47;;;;;;;;;11.75;11.25;;;;;21.13;100.00;99174.72;6264053;27;96411;-63
2023/07/09 02:40:53;;;;;;;;;15.00;13.00;;;;;21.12;100.00;99173.91;6284635;27;96345;-62
2023/07/09 02:43:56;;;;;;;;;14.00;14.00;;;;;21.06;100.00;99183.25;6256349;27;96875;-63
2023/07/09 02:46:59;;;;;;;;;13.00;11.60;;;;;21.13;100.00;99178.31;6291255;27;97561;-62
2023/07/09 02:50:04;;;;;;;;;11.80;10.20;;;;;21.24;100.00;99181.81;6264734;27;97014;-63
2023/07/09 02:53:07;;;;;;;;;13.40;12.00;;;;;21.34;100.00;99179.00;6256302;27;97488;-62
2023/07/09 02:56:12;;;;;;;;;14.67;13.00;;;;;21.38;100.00;99182.00;6272432;27;96569;-62
2023/07/09 02:59:16;;;;;;;;;13.00;12.00;;;;;21.46;100.00;99189.63;6289903;27;96453;-62
2023/07/09 03:02:20;;;;;;;;;11.25;11.00;;;;;21.45;100.00;99186.03;6267508;27;96506;-62
2023/07/09 03:05:28;;;;;;;;;13.80;12.20;;;;;21.44;100.00;99189.09;6247362;27;97479;-62
2023/07/09 03:08:31;;;;;;;;;14.00;14.00;;;;;21.35;100.00;99177.91;6247668;27;96532;-62
2023/07/09 03:11:36;;;;;;;;;12.00;11.50;;;;;21.43;100.00;99191.00;6265447;27;96438;-62
2023/07/09 03:14:39;;;;;;;;;11.25;11.00;;;;;21.49;100.00;99194.53;6257664;27;96420;-62
2023/07/09 03:17:42;;;;;;;;;13.00;11.00;;;;;21.46;100.00;99197.84;6269256;27;97031;-62
2023/07/09 03:20:46;;;;;;;;;12.00;11.00;;;;;21.46;100.00;99195.91;6227209;27;96672;-62
2023/07/09 03:23:49;;;;;;;;;14.00;14.00;;;;;21.50;100.00;99185.22;6225664;27;98419;-62
2023/07/09 03:26:53;;;;;;;;;13.00;12.00;;;;;21.59;100.00;99192.56;6244820;27;96873;-62
2023/07/09 03:29:56;;;;;;;;;12.20;12.00;;;;;21.68;100.00;99205.66;6263968;27;96556;-62
2023/07/09 03:33:00;;;;;;;;;12.20;10.80;;;;;21.69;100.00;99199.06;6265675;27;96951;-62
2023/07/09 03:36:04;;;;;;;;;12.80;12.00;;;;;21.72;100.00;99202.03;6254607;27;96663;-62
2023/07/09 03:39:08;;;;;;;;;13.60;12.60;;;;;21.67;100.00;99207.56;6267352;27;96545;-62
2023/07/09 03:42:12;;;;;;;;;13.00;13.00;;;;;21.67;100.00;99204.81;6275121;27;96491;-63
2023/07/09 03:45:16;;;;;;;;;12.60;12.00;;;;;21.58;100.00;99201.06;6269546;27;96291;-62
2023/07/09 03:48:20;;;;;;;;;13.40;13.00;;;;;21.66;100.00;99194.94;6277928;27;96365;-63
2023/07/09 03:51:23;;;;;;;;;16.00;15.00;;;;;21.66;100.00;99200.44;6287251;27;96597;-62
2023/07/09 03:54:26;;;;;;;;;12.60;12.00;;;;;21.61;100.00;99197.72;6245567;27;96389;-63
2023/07/09 03:57:32;;;;;;;;;16.00;14.50;;;;;21.58;100.00;99199.13;6266032;27;96295;-62
2023/07/09 04:00:35;;;;;;;;;14.25;13.25;;;;;21.61;100.00;99203.22;6265411;27;96450;-62
2023/07/09 04:03:38;;;;;;;;;14.00;13.00;;;;;21.66;100.00;99203.19;6246062;27;99119;-62
2023/07/09 04:06:41;;;;;;;;;12.00;12.00;;;;;21.75;100.00;99200.63;6274630;27;96385;-62
2023/07/09 04:09:46;;;;;;;;;12.00;12.00;;;;;21.82;100.00;99201.13;6267872;27;96998;-62
2023/07/09 04:12:50;;;;;;;;;9.60;9.60;;;;;21.87;100.00;99198.34;6270373;27;98860;-63
2023/07/09 04:15:53;;;;;;;;;13.00;13.00;;;;;21.92;100.00;99201.88;6289533;27;96281;-62
2023/07/09 04:18:56;;;;;;;;;13.60;12.00;;;;;22.03;100.00;99206.22;6289111;27;96259;-62
2023/07/09 04:21:59;;;;;;;;;14.00;13.00;;;;;22.11;100.00;99201.19;6270341;27;96872;-63
2023/07/09 04:25:04;;;;;;;;;12.00;10.00;;;;;22.05;100.00;99205.91;6280449;27;96842;-62
2023/07/09 04:28:09;;;;;;;;;12.00;11.00;;;;;22.15;100.00;99200.31;6267196;27;97832;-62
2023/07/09 04:31:12;;;;;;;;;12.20;9.80;;;;;22.14;100.00;99201.41;6262104;27;96948;-62
2023/07/09 04:34:15;;;;;;;;;11.00;10.00;;;;;22.15;100.00;99194.00;6228887;27;98561;-62
2023/07/09 04:37:18;;;;;;;;;12.50;12.00;;;;;22.15;100.00;99192.06;6272712;27;96592;-62
2023/07/09 04:40:22;;;;;;;;;11.50;11.50;;;;;22.22;100.00;99191.75;6280445;27;96885;-63
2023/07/09 04:43:26;;;;;;;;;12.40;12.00;;;;;22.36;100.00;99196.25;6250762;27;99162;-62
2023/07/09 04:46:29;;;;;;;;;11.50;10.50;;;;;22.39;100.00;99181.09;6264857;27;96497;-63
2023/07/09 04:49:33;;;;;;;;;13.00;11.75;;;;;22.50;100.00;99193.63;6269297;27;98394;-63
2023/07/09 04:52:36;;;;;;;;;13.00;12.60;;;;;22.66;100.00;99197.03;6260250;27;96293;-63
2023/07/09 04:55:40;;;;;;;;;11.00;11.00;;;;;22.79;100.00;99197.16;6243528;27;99347;-63
2023/07/09 04:58:44;;;;;;;;;12.00;11.00;;;;;22.89;100.00;99193.44;6243365;27;96420;-62
2023/07/09 05:01:49;;;;;;;;;11.00;11.00;;;;;22.96;100.00;99199.44;6277056;27;96636;-63
2023/07/09 05:04:53;;;;;;;;;14.20;13.20;;;;;23.13;100.00;99196.16;6245498;27;97268;-62
2023/07/09 05:07:56;;;;;;;;;11.50;10.50;;;;;23.29;99.19;99192.09;6248453;27;97128;-63
2023/07/09 05:10:59;;;;;;;;;13.00;11.25;;;;;23.38;99.01;99194.97;6242383;27;98404;-62
2023/07/09 05:14:04;;;;;;;;;12.00;10.00;;;;;23.49;100.00;99199.25;6263020;27;96725;-63
2023/07/09 05:17:08;;;;;;;;;10.00;9.00;;;;;23.57;100.00;99201.31;6243899;27;97243;-63
2023/07/09 05:20:12;;;;;;;;;11.00;10.50;;;;;23.57;100.00;99207.63;6260920;27;96360;-62
2023/07/09 05:23:15;;;;;;;;;12.00;11.00;;;;;23.71;100.00;99213.19;6260711;27;96888;-63
2023/07/09 05:26:18;;;;;;;;;12.40;11.00;;;;;23.88;100.00;99212.66;6265742;27;96711;-63
2023/07/09 05:29:23;;;;;;;;;11.40;11.00;;;;;23.91;100.00;99207.38;6264742;27;96983;-62
2023/07/09 05:32:26;;;;;;;;;9.60;9.60;;;;;24.10;100.00;99213.63;6263259;27;96731;-63
2023/07/09 05:35:29;;;;;;;;;10.60;10.00;;;;;24.10;100.00;99213.63;6269027;27;98672;-63
2023/07/09 05:38:32;;;;;;;;;8.60;8.40;;;;;24.21;100.00;99207.97;6285905;27;96860;-63
2023/07/09 05:41:36;;;;;;;;;9.00;8.80;;;;;24.32;100.00;99199.22;6261116;27;96292;-63
2023/07/09 05:44:40;;;;;;;;;9.80;8.20;;;;;24.38;97.92;99203.53;6244443;27;98629;-63
2023/07/09 05:47:43;;;;;;;;;9.00;9.00;;;;;24.45;97.37;99212.19;6261768;27;97554;-63
2023/07/09 05:50:46;;;;;;;;;10.00;10.00;;;;;24.54;96.48;99220.56;6244438;27;96312;-63
2023/07/09 05:53:49;;;;;;;;;7.40;7.40;;;;;24.74;98.31;99222.94;6243967;27;98387;-63
2023/07/09 05:56:52;;;;;;;;;11.00;10.00;;;;;24.80;96.07;99215.38;6249167;27;96536;-63
2023/07/09 05:59:57;;;;;;;;;11.00;10.00;;;;;24.89;96.87;99217.16;6267986;27;97061;-63
2023/07/09 06:03:01;;;;;;;;;9.60;9.60;;;;;25.01;97.53;99222.97;6292261;27;97416;-62
2023/07/09 06:06:06;;;;;;;;;11.00;11.00;;;;;25.15;96.86;99222.13;6282640;27;97081;-63
2023/07/09 06:09:09;;;;;;;;;13.00;12.00;;;;;25.28;97.30;99222.09;6275890;27;96243;-63
2023/07/09 06:12:14;;;;;;;;;10.00;9.00;;;;;25.42;89.98;99225.63;6272621;27;96474;-63
2023/07/09 06:15:18;;;;;;;;;11.00;11.00;;;;;25.53;92.39;99217.13;6269134;27;97227;-62
2023/07/09 06:18:21;;;;;;;;;13.25;12.75;;;;;25.70;84.42;99231.13;6275868;27;98571;-62
2023/07/09 06:21:25;;;;;;;;;7.60;7.00;;;;;25.92;81.91;99239.41;6274049;27;97025;-63
2023/07/09 06:24:28;;;;;;;;;8.60;8.00;;;;;26.00;78.84;99230.34;6279213;27;96974;-63
2023/07/09 06:27:31;;;;;;;;;10.00;9.00;;;;;26.23;77.21;99231.19;6277716;27;96902;-62
2023/07/09 06:30:37;;;;;;;;;9.00;8.00;;;;;26.37;73.46;99229.16;6279148;27;96506;-63
2023/07/09 06:33:40;;;;;;;;;8.00;7.80;;;;;26.46;71.33;99238.31;6247670;27;97767;-63
2023/07/09 06:36:44;;;;;;;;;10.20;9.00;;;;;26.53;72.58;99232.31;6264920;27;96447;-63
2023/07/09 06:39:47;;;;;;;;;8.00;8.00;;;;;26.71;74.72;99234.84;6268952;27;97017;-63
2023/07/09 06:42:50;;;;;;;;;10.00;9.00;;;;;26.88;72.54;99233.31;6283494;27;96520;-63
2023/07/09 06:46:11;;;;;;;;;9.60;9.00;;;;;27.11;72.56;99224.59;6269194;27;96417;-63
2023/07/09 06:49:15;;;;;;;;;10.00;9.20;;;;;27.22;70.75;99229.81;6290054;27;96442;-63
2023/07/09 06:52:18;;;;;;;;;8.00;7.00;;;;;27.29;70.01;99228.19;6258384;27;97327;-62
2023/07/09 06:55:26;;;;;;;;;8.00;7.75;;;;;27.41;68.00;99213.72;6258801;27;97862;-62
2023/07/09 06:58:39;;;;;;;;;8.00;8.00;;;;;27.47;65.69;99216.00;6239629;27;97295;-63
2023/07/09 07:01:43;;;;;;;;;8.60;8.00;;;;;27.55;64.17;99226.31;6277080;27;97761;-63
2023/07/09 07:04:48;;;;;;;;;8.00;8.00;;;;;27.65;64.36;99224.34;6248925;27;97737;-63
2023/07/09 07:07:53;;;;;;;;;7.60;7.00;;;;;27.80;63.31;99221.91;6280330;27;97350;-63
2023/07/09 07:11:02;;;;;;;;;8.00;7.40;;;;;27.83;63.22;99218.47;6249571;27;98371;-63
2023/07/09 07:14:06;;;;;;;;;7.00;6.60;;;;;28.04;65.41;99217.81;6276854;27;96829;-63
2023/07/09 07:17:10;;;;;;;;;7.75;7.50;;;;;28.15;63.56;99227.44;6254510;27;96587;-63
2023/07/09 07:20:15;;;;;;;;;8.33;8.33;;;;;28.15;61.11;99231.00;6283846;27;96289;-64
2023/07/09 07:23:21;;;;;;;;;7.00;7.00;;;;;28.32;63.09;99222.66;6260138;27;98426;-62
2023/07/09 07:26:24;;;;;;;;;8.00;8.00;;;;;28.60;65.00;99223.03;6272722;27;96928;-64
2023/07/09 07:29:28;;;;;;;;;8.00;8.00;;;;;28.96;62.46;99219.00;6271604;27;96461;-63
2023/07/09 07:32:32;;;;;;;;;8.40;8.00;;;;;29.01;61.71;99221.59;6260857;27;96398;-64
2023/07/09 07:35:36;;;;;;;;;8.80;8.40;;;;;29.11;61.03;99226.75;6221135;28;96684;-64
2023/07/09 07:38:46;;;;;;;;;8.00;7.20;;;;;29.17;63.16;99217.91;6221492;28;96671;-63
2023/07/09 07:41:50;;;;;;;;;8.00;7.00;;;;;29.44;61.24;99229.66;6212349;28;98279;-63
2023/07/09 07:44:54;;;;;;;;;9.00;8.00;;;;;29.39;59.37;99221.53;6240134;27;96371;-64
2023/07/09 07:47:58;;;;;;;;;8.20;8.20;;;;;29.65;57.70;99222.97;6244377;27;96379;-63
2023/07/09 07:51:03;;;;;;;;;10.00;10.00;;;;;29.69;60.27;99217.53;6238773;28;96929;-64
2023/07/09 07:54:08;;;;;;;;;8.60;8.60;;;;;30.00;60.11;99222.69;6230869;27;97504;-63
2023/07/09 07:57:12;;;;;;;;;10.00;9.00;;;;;30.17;59.58;99216.13;6246920;27;97013;-64
2023/07/09 08:00:16;;;;;;;;;9.40;9.00;;;;;30.41;61.93;99230.91;6240447;27;96443;-63
2023/07/09 08:03:23;;;;;;;;;10.25;9.25;;;;;30.55;59.62;99223.06;6239931;27;96503;-63
2023/07/09 08:06:27;;;;;;;;;10.40;10.00;;;;;30.76;59.04;99223.00;6244716;27;98363;-63
2023/07/09 08:09:30;;;;;;;;;11.00;11.00;;;;;30.94;60.13;99213.25;6258868;27;96879;-63
2023/07/09 08:12:33;;;;;;;;;10.00;9.00;;;;;31.24;61.17;99208.25;6224137;27;96378;-63
2023/07/09 08:15:37;;;;;;;;;8.40;8.00;;;;;31.68;59.04;99209.22;6219243;27;98851;-63
2023/07/09 08:18:41;;;;;;;;;8.00;7.80;;;;;31.80;55.08;99220.34;6213694;27;98471;-63
2023/07/09 08:21:45;;;;;;;;;9.00;8.00;;;;;31.90;55.65;99207.88;6213905;27;98718;-63
2023/07/09 08:24:48;;;;;;;;;9.00;9.00;;;;;32.10;53.11;99209.66;6225474;27;97016;-63
2023/07/09 08:27:51;;;;;;;;;7.20;7.20;;;;;32.21;52.43;99196.00;6227077;27;96103;-63
2023/07/09 08:30:54;;;;;;;;;8.80;8.20;;;;;32.17;52.26;99214.63;6243618;27;97331;-63
2023/07/09 08:33:59;;;;;;;;;9.00;8.00;;;;;32.29;52.56;99202.59;6251628;27;96737;-63
2023/07/09 08:37:03;;;;;;;;;8.00;7.00;;;;;32.38;48.42;99204.03;6269220;27;98408;-63
2023/07/09 08:40:13;;;;;;;;;7.50;7.00;;;;;32.56;51.93;99204.50;6256905;27;96898;-63
2023/07/09 08:43:33;;;;;;;;;9.00;8.60;;;;;32.95;50.46;99200.72;6271464;27;96317;-63
2023/07/09 08:46:52;;;;;;;;;8.00;8.00;;;;;33.30;47.96;99208.34;6259838;27;96323;-63
2023/07/09 08:50:01;;;;;;;;;9.00;8.00;;;;;33.58;46.70;99208.16;6261740;27;96323;-63
2023/07/09 08:53:06;;;;;;;;;9.00;8.00;;;;;33.87;46.47;99202.81;6267763;27;98647;-63
2023/07/09 08:56:11;;;;;;;;;7.80;7.00;;;;;34.20;49.27;99199.50;6281398;27;98057;-63
2023/07/09 08:59:17;;;;;;;;;8.60;7.60;;;;;34.22;43.11;99199.13;6263151;27;96621;-63
2023/07/09 09:02:32;;;;;;;;;7.00;6.80;;;;;34.36;41.06;99191.78;6268865;27;96533;-63
2023/07/09 09:05:43;;;;;;;;;8.00;8.00;;;;;34.42;42.84;99199.88;6253123;27;96815;-62
2023/07/09 09:09:04;;;;;;;;;8.50;8.50;;;;;34.32;41.25;99192.91;6266028;27;97096;-62
2023/07/09 09:12:17;;;;;;;;;11.00;9.40;;;;;34.56;42.20;99202.94;6253868;27;96645;-63
2023/07/09 09:15:22;;;;;;;;;9.60;9.00;;;;;34.62;39.73;99195.84;6242515;27;96735;-63
2023/07/09 09:18:27;;;;;;;;;10.00;9.75;;;;;34.73;39.92;99206.09;6263836;27;96405;-63
2023/07/09 09:21:35;;;;;;;;;8.50;8.50;;;;;34.77;37.89;99206.94;6275613;27;96673;-63
2023/07/09 09:24:57;;;;;;;;;10.00;9.40;;;;;34.78;39.39;99191.75;6246864;27;97838;-63
2023/07/09 09:28:02;;;;;;;;;8.20;7.00;;;;;35.07;39.29;99195.81;6257259;27;96875;-63
2023/07/09 09:31:07;;;;;;;;;8.00;8.00;;;;;35.19;38.65;99198.41;6242915;27;98745;-62
2023/07/09 09:34:19;;;;;;;;;7.00;6.50;;;;;35.35;40.15;99200.25;6273677;27;96725;-63
2023/07/09 09:37:29;;;;;;;;;8.00;8.00;;;;;35.50;38.03;99202.88;6271712;27;98088;-62
2023/07/09 09:40:36;;;;;;;;;11.00;10.00;;;;;35.41;36.97;99193.94;6249661;27;98584;-63
2023/07/09 09:43:43;;;;;;;;;9.00;8.00;;;;;35.73;37.95;99194.38;6265148;27;96490;-63
2023/07/09 09:46:47;;;;;;;;;10.00;10.00;;;;;35.91;37.19;99195.41;6252265;27;97358;-63
2023/07/09 09:49:53;;;;;;;;;8.20;8.00;;;;;35.79;31.88;99186.41;6265780;27;96830;-63
2023/07/09 09:53:00;;;;;;;;;9.00;8.60;;;;;36.03;32.75;99197.13;6280577;27;96283;-64
2023/07/09 09:56:06;;;;;;;;;7.60;7.60;;;;;36.31;32.37;99191.06;6276456;27;96650;-63
2023/07/09 09:59:19;;;;;;;;;9.20;8.40;;;;;36.26;33.34;99174.56;6260100;27;98467;-64
2023/07/09 10:02:25;;;;;;;;;10.20;9.20;;;;;36.38;31.96;99196.72;6276690;27;96350;-63
2023/07/09 10:05:35;;;;;;;;;8.50;7.50;;;;;36.65;32.75;99189.00;6275049;27;96387;-64
2023/07/09 10:08:51;;;;;;;;;10.00;9.00;;;;;37.01;32.69;99179.63;6265694;27;96398;-64
2023/07/09 10:12:02;;;;;;;;;8.00;7.00;;;;;37.36;32.76;99181.88;6259866;27;98469;-63
2023/07/09 10:15:17;;;;;;;;;9.00;9.00;;;;;37.40;29.75;99179.09;6268341;27;97571;-63
2023/07/09 10:18:35;;;;;;;;;8.00;8.00;;;;;37.39;29.42;99178.28;6240309;27;96467;-63
2023/07/09 10:21:46;;;;;;;;;7.00;6.60;;;;;37.19;27.46;99177.75;6259595;27;98573;-63
2023/07/09 10:25:01;;;;;;;;;8.80;8.00;;;;;36.77;26.99;99180.25;6237332;27;97569;-62
2023/07/09 10:28:25;;;;;;;;;10.00;8.80;;;;;36.76;27.37;99173.81;6251695;27;99018;-62
2023/07/09 10:31:41;;;;;;;;;10.00;10.00;;;;;36.81;28.04;99173.47;6259083;27;96706;-62
2023/07/09 10:34:55;;;;;;;;;9.00;9.00;;;;;36.85;29.13;99170.66;6268960;27;96581;-63
2023/07/09 10:38:08;;;;;;;;;8.80;8.00;;;;;36.68;27.60;99172.16;6246783;27;97425;-63
2023/07/09 10:41:14;;;;;;;;;10.75;9.00;;;;;36.45;26.22;99172.34;6274404;27;96654;-63
2023/07/09 10:44:34;;;;;;;;;7.20;7.20;;;;;36.36;28.95;99171.06;6264588;27;98098;-63
2023/07/09 10:47:44;;;;;;;;;9.00;8.80;;;;;36.38;27.37;99161.03;6251337;27;96762;-63
2023/07/09 10:50:52;;;;;;;;;8.00;8.00;;;;;36.62;27.11;99168.09;6228786;27;96942;-63
2023/07/09 10:54:01;;;;;;;;;10.00;9.25;;;;;36.35;27.22;99164.63;6233839;27;98770;-62
2023/07/09 10:57:15;;;;;;;;;8.00;8.00;;;;;36.56;27.57;99164.00;6253068;27;96708;-63
2023/07/09 11:00:21;;;;;;;;;11.00;9.80;;;;;36.60;27.03;99164.03;6232926;27;97063;-63
2023/07/09 11:03:38;;;;;;;;;8.40;8.00;;;;;36.38;25.27;99165.84;6233765;27;97774;-62
2023/07/09 11:06:46;;;;;;;;;11.00;9.00;;;;;36.33;26.53;99160.56;6276833;27;97009;-62
2023/07/09 11:09:54;;;;;;;;;9.20;9.00;;;;;36.01;27.95;99165.84;6266069;27;96621;-63
2023/07/09 11:13:06;;;;;;;;;12.00;11.00;;;;;35.73;28.52;99160.69;6269270;27;97011;-64
2023/07/09 11:16:15;;;;;;;;;10.60;10.00;;;;;35.67;28.55;99156.66;6257049;27;98468;-64
2023/07/09 11:19:21;;;;;;;;;10.50;10.00;;;;;35.96;28.81;99158.59;6249998;27;96719;-63
2023/07/09 11:22:28;;;;;;;;;9.00;9.00;;;;;36.23;29.95;99161.28;6252183;27;98076;-63
2023/07/09 11:25:42;;;;;;;;;8.20;8.00;;;;;36.72;28.74;99146.91;6246190;27;98374;-63
2023/07/09 11:28:52;;;;;;;;;10.00;9.00;;;;;37.06;26.90;99153.16;6258618;27;96786;-63
2023/07/09 11:31:59;;;;;;;;;11.60;11.40;;;;;37.05;26.25;99145.91;6278132;27;96512;-64
2023/07/09 11:35:21;;;;;;;;;11.00;11.00;;;;;37.39;25.59;99138.13;6237075;27;96948;-63
2023/07/09 11:38:28;;;;;;;;;9.50;9.00;;;;;37.49;24.48;99149.41;6247404;27;97439;-64
2023/07/09 11:41:41;;;;;;;;;9.00;8.00;;;;;37.50;24.24;99153.81;6274477;27;96367;-64
2023/07/09 11:44:50;;;;;;;;;9.20;9.20;;;;;37.24;24.69;99140.06;6235927;27;96751;-64
2023/07/09 11:48:03;;;;;;;;;9.00;9.00;;;;;37.10;24.83;99146.38;6248325;27;98326;-64
2023/07/09 11:51:15;;;;;;;;;9.40;9.00;;;;;37.05;24.55;99134.66;6264967;27;97443;-63
2023/07/09 11:54:20;;;;;;;;;9.67;9.00;;;;;37.17;24.03;99140.81;6269088;27;97170;-64
2023/07/09 11:57:31;;;;;;;;;11.00;10.00;;;;;37.16;25.28;99138.38;6249513;27;97915;-64
2023/07/09 12:00:40;;;;;;;;;10.25;10.00;;;;;37.01;24.98;99133.84;6253295;27;96495;-64
2023/07/09 12:03:46;;;;;;;;;8.00;8.00;;;;;36.99;23.70;99130.63;6237938;27;97107;-64
2023/07/09 12:06:57;;;;;;;;;10.40;10.00;;;;;37.25;25.00;99136.03;6252895;27;97359;-63
2023/07/09 12:10:04;;;;;;;;;9.00;9.00;;;;;37.44;25.19;99124.47;6283660;27;96261;-63
2023/07/09 12:13:12;;;;;;;;;9.00;8.00;;;;;37.72;24.92;99133.06;6269741;27;96300;-63
2023/07/09 12:16:25;;;;;;;;;10.00;9.00;;;;;37.79;23.45;99121.00;6264948;27;97679;-63
2023/07/09 12:19:31;;;;;;;;;9.00;8.60;;;;;37.93;24.38;99129.47;6280246;27;96886;-63
2023/07/09 12:22:35;;;;;;;;;8.60;8.00;;;;;38.22;24.64;99118.31;6251183;27;96766;-63
2023/07/09 12:25:38;;;;;;;;;9.00;9.00;;;;;38.23;24.84;99101.00;6275819;27;97077;-63
2023/07/09 12:28:41;;;;;;;;;9.60;8.60;;;;;38.39;24.24;99109.06;6249419;27;96716;-63
2023/07/09 12:31:46;;;;;;;;;9.00;9.00;;;;;38.51;23.04;99108.69;6268131;27;96996;-63
2023/07/09 12:34:52;;;;;;;;;7.50;7.00;;;;;38.36;23.27;99109.88;6257486;27;97633;-63
2023/07/09 12:37:57;;;;;;;;;10.60;10.60;;;;;37.87;22.87;99104.97;6281271;27;96889;-63
2023/07/09 12:41:01;;;;;;;;;12.00;11.00;;;;;37.53;22.81;99082.75;6254896;27;98526;-63
2023/07/09 12:44:05;;;;;;;;;11.00;11.00;;;;;37.58;23.22;99087.97;6274014;27;96854;-63
2023/07/09 12:47:14;;;;;;;;;9.00;8.00;;;;;37.58;23.09;99095.63;6256978;27;97266;-63
2023/07/09 12:50:23;;;;;;;;;9.00;9.00;;;;;37.83;23.29;99090.84;6247252;27;99452;-62
2023/07/09 12:53:29;;;;;;;;;11.00;11.00;;;;;38.01;23.92;99099.38;6264793;27;96497;-63
2023/07/09 12:56:36;;;;;;;;;9.00;9.00;;;;;38.07;22.40;99083.72;6266744;27;97546;-63
2023/07/09 12:59:42;;;;;;;;;10.00;9.00;;;;;38.15;22.27;99077.69;6258082;27;98785;-63
2023/07/09 13:02:52;;;;;;;;;10.00;10.00;;;;;38.04;21.95;99081.69;6263446;27;97661;-63
2023/07/09 13:05:58;;;;;;;;;11.00;10.00;;;;;38.24;21.72;99077.25;6252918;27;97910;-63
2023/07/09 13:09:03;;;;;;;;;11.00;11.00;;;;;38.00;23.06;99081.69;6275427;27;96988;-63
2023/07/09 13:12:08;;;;;;;;;10.00;10.00;;;;;37.92;22.93;99088.47;6251689;27;96436;-63
2023/07/09 13:15:26;;;;;;;;;11.00;11.00;;;;;37.73;21.97;99086.00;6246686;27;96994;-63
2023/07/09 13:18:31;;;;;;;;;11.00;10.60;;;;;37.72;22.24;99085.22;6268426;27;96422;-63
2023/07/09 13:21:34;;;;;;;;;14.00;13.00;;;;;37.86;22.88;99089.25;6269418;27;96651;-63
2023/07/09 13:24:38;;;;;;;;;12.75;12.00;;;;;37.99;22.82;99088.50;6250173;27;97382;-62
2023/07/09 13:27:41;;;;;;;;;10.00;10.00;;;;;38.09;22.49;99079.28;6271888;27;96487;-63
2023/07/09 13:30:45;;;;;;;;;10.00;10.00;;;;;38.17;22.47;99078.06;6270631;27;96502;-63
2023/07/09 13:33:55;;;;;;;;;10.40;10.00;;;;;38.25;22.85;99078.06;6241667;27;97135;-63
2023/07/09 13:36:58;;;;;;;;;11.60;10.00;;;;;38.09;21.70;99068.00;6238591;27;97841;-63
2023/07/09 13:40:03;;;;;;;;;10.00;9.25;;;;;37.93;22.45;99072.38;6252107;27;96699;-63
2023/07/09 13:43:11;;;;;;;;;10.60;10.60;;;;;37.92;21.91;99062.34;6253601;27;96621;-63
2023/07/09 13:46:16;;;;;;;;;9.00;7.50;;;;;37.48;22.63;99069.06;6257476;27;96680;-63
2023/07/09 13:49:22;;;;;;;;;11.00;10.00;;;;;37.51;22.90;99061.81;6226105;27;98819;-63
2023/07/09 13:52:30;;;;;;;;;10.40;10.40;;;;;37.29;23.70;99056.09;6260393;27;96544;-63
2023/07/09 13:55:33;;;;;;;;;10.00;9.60;;;;;37.45;23.81;99061.38;6258864;27;96802;-63
2023/07/09 13:58:37;;;;;;;;;9.25;9.00;;;;;37.62;24.20;99057.88;6225617;27;99259;-63
2023/07/09 14:01:40;;;;;;;;;11.00;11.00;;;;;37.69;23.55;99062.69;6259966;27;96525;-63
2023/07/09 14:04:45;;;;;;;;;11.00;10.00;;;;;37.64;23.28;99061.06;6232224;27;96856;-62
2023/07/09 14:07:48;;;;;;;;;9.00;9.00;;;;;37.60;24.55;99065.06;6259607;27;96345;-63
2023/07/09 14:10:51;;;;;;;;;10.60;9.00;;;;;37.65;23.74;99059.88;6260046;27;96789;-63
2023/07/09 14:13:55;;;;;;;;;10.00;10.00;;;;;37.38;24.05;99060.56;6259988;27;96355;-63
2023/07/09 14:16:58;;;;;;;;;11.20;10.80;;;;;37.28;24.35;99062.16;6239117;27;98577;-63
2023/07/09 14:20:04;;;;;;;;;10.00;9.40;;;;;37.27;24.10;99050.09;6242780;27;98751;-63
2023/07/09 14:23:11;;;;;;;;;8.60;8.00;;;;;37.05;23.31;99050.34;6240884;27;96553;-63